createdAt,value
2018-09-03T00:00:41.113Z,93558.46
2018-09-03T00:03:09.245Z,93551.30
2018-09-03T00:05:37.248Z,93551.94
2018-09-03T00:08:05.385Z,93548.62
2018-09-03T00:10:33.446Z,93544.20
2018-09-03T00:13:01.494Z,93543.86
2018-09-03T00:15:29.590Z,93547.45
2018-09-03T00:17:57.715Z,93549.77
2018-09-03T00:20:25.755Z,93546.69
2018-09-03T00:22:53.764Z,93548.14
2018-09-03T00:25:21.893Z,93545.77
2018-09-03T00:27:50.098Z,93546.38
2018-09-03T00:30:18.212Z,93540.94
2018-09-03T00:32:51.985Z,93546.80
2018-09-03T00:35:25.624Z,93544.67
2018-09-03T00:37:59.182Z,93552.17
2018-09-03T00:40:33.139Z,93550.98
2018-09-03T00:44:06.899Z,93552.19
2018-09-03T00:46:40.553Z,93550.30
2018-09-03T00:49:08.692Z,93545.91
2018-09-03T00:51:36.811Z,93545.91
2018-09-03T00:54:05.003Z,93544.70
2018-09-03T00:56:33.314Z,93546.35
2018-09-03T00:59:01.505Z,93548.02
2018-09-03T01:01:29.643Z,93546.56
2018-09-03T01:03:57.718Z,93543.45
2018-09-03T01:06:25.728Z,93545.98
2018-09-03T01:08:53.827Z,93542.19
2018-09-03T01:11:24.635Z,93538.73
2018-09-03T01:13:53.422Z,93540.98
2018-09-03T01:16:21.579Z,93538.14
2018-09-03T01:18:54.255Z,93535.16
2018-09-03T01:21:23.049Z,93535.42
2018-09-03T01:23:51.079Z,93536.48
2018-09-03T01:26:19.065Z,93543.30
2018-09-03T01:28:47.108Z,93542.22
2018-09-03T01:31:17.949Z,93540.58
2018-09-03T01:33:47.016Z,93540.59
2018-09-03T01:36:15.299Z,93541.09
2018-09-03T01:38:43.341Z,93539.91
2018-09-03T01:41:11.418Z,93540.66
2018-09-03T01:43:39.575Z,93542.98
2018-09-03T01:46:07.650Z,93530.37
2018-09-03T01:48:35.656Z,93542.05
2018-09-03T01:51:04.235Z,93529.58
2018-09-03T01:53:32.530Z,93539.91
2018-09-03T01:56:00.558Z,93533.51
2018-09-03T01:58:28.745Z,93535.27
2018-09-03T02:00:56.760Z,93523.64
2018-09-03T02:03:24.912Z,93520.03
2018-09-03T02:05:53.076Z,93523.16
2018-09-03T02:08:21.267Z,93519.83
2018-09-03T02:10:49.408Z,93521.47
2018-09-03T02:13:17.524Z,93524.45
2018-09-03T02:15:45.553Z,93529.09
2018-09-03T02:18:13.628Z,93531.69
2018-09-03T02:20:41.674Z,93533.47
2018-09-03T02:23:09.687Z,93530.96
2018-09-03T02:25:37.738Z,93529.05
2018-09-03T02:28:05.871Z,93530.09
2018-09-03T02:30:33.960Z,93528.66
2018-09-03T02:33:02.064Z,93524.09
2018-09-03T02:35:30.116Z,93525.09
2018-09-03T02:37:58.131Z,93528.05
2018-09-03T02:40:26.117Z,93532.00
2018-09-03T02:42:54.240Z,93522.50
2018-09-03T02:45:22.394Z,93525.13
2018-09-03T02:47:50.444Z,93519.64
2018-09-03T02:50:18.529Z,93516.78
2018-09-03T02:52:46.808Z,93512.39
2018-09-03T02:55:14.894Z,93503.38
2018-09-03T02:57:42.987Z,93506.46
2018-09-03T03:00:11.099Z,93505.88
2018-09-03T03:02:39.220Z,93506.71
2018-09-03T03:05:07.298Z,93499.81
2018-09-03T03:07:35.414Z,93500.89
2018-09-03T03:10:03.450Z,93506.25
2018-09-03T03:12:31.558Z,93503.77
2018-09-03T03:14:59.737Z,93507.59
2018-09-03T03:17:28.093Z,93501.31
2018-09-03T03:19:56.123Z,93495.83
2018-09-03T03:22:24.206Z,93501.06
2018-09-03T03:24:52.183Z,93490.27
2018-09-03T03:27:20.235Z,93489.55
2018-09-03T03:29:48.285Z,93490.72
2018-09-03T03:32:16.294Z,93490.38
2018-09-03T03:34:44.390Z,93497.14
2018-09-03T03:37:12.505Z,93497.50
2018-09-03T03:39:40.586Z,93498.44
2018-09-03T03:42:08.819Z,93496.90
2018-09-03T03:44:37.207Z,93497.50
2018-09-03T03:47:05.670Z,93495.82
2018-09-03T03:49:33.692Z,93496.78
2018-09-03T03:52:01.893Z,93496.78
2018-09-03T03:54:30.088Z,93496.90
2018-09-03T03:56:58.316Z,93499.02
2018-09-03T03:59:26.361Z,93498.69
2018-09-03T04:01:54.507Z,93497.27
2018-09-03T04:04:22.600Z,93497.39
2018-09-03T04:06:50.693Z,93488.47
2018-09-03T04:09:18.793Z,93496.09
2018-09-03T04:11:46.836Z,93491.91
2018-09-03T04:14:14.841Z,93491.20
2018-09-03T04:16:42.908Z,93491.31
2018-09-03T04:19:11.004Z,93496.91
2018-09-03T04:21:39.049Z,93495.61
2018-09-03T04:24:07.023Z,93500.23
2018-09-03T04:26:35.048Z,93501.06
2018-09-03T04:29:03.107Z,93492.95
2018-09-03T04:31:31.260Z,93482.80
2018-09-03T04:33:59.327Z,93489.33
2018-09-03T04:36:27.560Z,93479.47
2018-09-03T04:38:55.648Z,93480.76
2018-09-03T04:41:23.726Z,93479.00
2018-09-03T04:43:51.767Z,93477.29
2018-09-03T04:46:19.920Z,93466.47
2018-09-03T04:48:48.003Z,93468.37
2018-09-03T04:51:16.123Z,93466.48
2018-09-03T04:53:44.326Z,93469.60
2018-09-03T04:56:12.507Z,93469.30
2018-09-03T04:58:40.595Z,93465.75
2018-09-03T05:01:08.811Z,93470.91
2018-09-03T05:03:36.956Z,93460.03
2018-09-03T05:06:05.223Z,93464.02
2018-09-03T05:08:33.499Z,93470.78
2018-09-03T05:11:01.676Z,93478.07
2018-09-03T05:13:29.748Z,93477.68
2018-09-03T05:15:57.825Z,93485.05
2018-09-03T05:18:26.031Z,93489.27
2018-09-03T05:20:54.232Z,93488.69
2018-09-03T05:23:22.619Z,93489.19
2018-09-03T05:25:50.750Z,93488.56
2018-09-03T05:28:19.234Z,93490.20
2018-09-03T05:30:47.426Z,93492.58
2018-09-03T05:33:15.860Z,93484.14
2018-09-03T05:35:43.949Z,93481.98
2018-09-03T05:38:12.118Z,93481.23
2018-09-03T05:40:40.496Z,93488.48
2018-09-03T05:43:08.691Z,93483.72
2018-09-03T05:45:36.899Z,93488.15
2018-09-03T05:48:05.608Z,93489.32
2018-09-03T05:50:33.798Z,93489.99
2018-09-03T05:53:01.865Z,93494.16
2018-09-03T05:55:30.039Z,93490.97
2018-09-03T05:57:58.127Z,93501.53
2018-09-03T06:00:26.372Z,93496.70
2018-09-03T06:02:54.530Z,93503.02
2018-09-03T06:05:22.693Z,93498.50
2018-09-03T06:07:50.913Z,93501.92
2018-09-03T06:10:19.211Z,93501.03
2018-09-03T06:12:47.413Z,93491.41
2018-09-03T06:15:15.501Z,93491.23
2018-09-03T06:17:43.549Z,93498.47
2018-09-03T06:20:12.066Z,93500.01
2018-09-03T06:22:40.324Z,93499.94
2018-09-03T06:25:09.026Z,93505.27
2018-09-03T06:27:37.428Z,93498.87
2018-09-03T06:30:05.727Z,93491.41
2018-09-03T06:32:34.082Z,93489.52
2018-09-03T06:35:02.339Z,93488.05
2018-09-03T06:37:30.558Z,93481.91
2018-09-03T06:39:58.910Z,93478.58
2018-09-03T06:42:27.042Z,93482.86
2018-09-03T06:44:55.359Z,93487.68
2018-09-03T06:47:23.676Z,93482.11
2018-09-03T06:49:52.427Z,93490.41
2018-09-03T06:52:20.609Z,93492.72
2018-09-03T06:54:48.841Z,93492.70
2018-09-03T06:57:17.004Z,93488.77
2018-09-03T06:59:45.160Z,93482.94
2018-09-03T07:02:13.277Z,93487.27
2018-09-03T07:04:41.666Z,93479.56
2018-09-03T07:07:09.758Z,93477.39
2018-09-03T07:09:37.929Z,93480.17
2018-09-03T07:12:05.884Z,93484.45
2018-09-03T07:14:34.107Z,93481.41
2018-09-03T07:17:02.308Z,93484.19
2018-09-03T07:19:30.498Z,93488.81
2018-09-03T07:21:58.959Z,93483.95
2018-09-03T07:24:27.112Z,93487.24
2018-09-03T07:26:55.202Z,93487.50
2018-09-03T07:29:23.465Z,93484.37
2018-09-03T07:31:51.678Z,93481.83
2018-09-03T07:34:20.459Z,93474.76
2018-09-03T07:36:48.678Z,93465.97
2018-09-03T07:39:17.167Z,93470.13
2018-09-03T07:41:45.482Z,93465.20
2018-09-03T07:44:13.708Z,93463.61
2018-09-03T07:46:41.843Z,93463.45
2018-09-03T07:49:09.944Z,93460.56
2018-09-03T07:51:38.033Z,93456.50
2018-09-03T07:54:06.169Z,93462.00
2018-09-03T07:56:34.332Z,93463.08
2018-09-03T07:59:02.402Z,93462.35
2018-09-03T08:01:30.519Z,93458.12
2018-09-03T08:03:58.697Z,93447.84
2018-09-03T08:06:26.958Z,93452.90
2018-09-03T08:08:55.843Z,93446.14
2018-09-03T08:11:24.898Z,93439.75
2018-09-03T08:13:53.367Z,93440.61
2018-09-03T08:16:22.029Z,93431.19
2018-09-03T08:18:50.481Z,93428.62
2018-09-03T08:21:18.843Z,93423.81
2018-09-03T08:23:47.505Z,93420.61
2018-09-03T08:26:15.847Z,93416.11
2018-09-03T08:28:45.000Z,93410.80
2018-09-03T08:31:13.490Z,93399.47
2018-09-03T08:33:41.649Z,93408.86
2018-09-03T08:36:10.221Z,93407.04
2018-09-03T08:38:38.516Z,93414.12
2018-09-03T08:41:07.714Z,93411.34
2018-09-03T08:43:35.985Z,93407.59
2018-09-03T08:46:04.118Z,93402.92
2018-09-03T08:48:32.273Z,93404.16
2018-09-03T08:51:00.669Z,93403.67
2018-09-03T08:53:29.353Z,93399.70
2018-09-03T08:55:57.656Z,93404.97
2018-09-03T08:58:26.325Z,93402.53
2018-09-03T09:00:54.836Z,93394.80
2018-09-03T09:03:28.740Z,93386.88
2018-09-03T09:05:57.130Z,93384.63
2018-09-03T09:08:26.462Z,93387.01
2018-09-03T09:10:56.177Z,93382.06
2018-09-03T09:13:26.069Z,93386.28
2018-09-03T09:15:54.288Z,93384.22
2018-09-03T09:18:23.664Z,93381.86
2018-09-03T09:20:59.650Z,93377.70
2018-09-03T09:23:32.914Z,93366.81
2018-09-03T09:26:09.907Z,93366.61
2018-09-03T09:28:45.120Z,93362.38
2018-09-03T09:31:19.830Z,93362.17
2018-09-03T09:33:48.977Z,93355.45
2018-09-03T09:36:17.370Z,93354.27
2018-09-03T09:38:45.599Z,93348.06
2018-09-03T09:41:13.771Z,93339.98
2018-09-03T09:43:42.429Z,93340.31
2018-09-03T09:46:13.442Z,93339.84
2018-09-03T09:48:42.966Z,93336.09
2018-09-03T09:51:11.910Z,93331.97
2018-09-03T09:53:40.101Z,93330.16
2018-09-03T09:56:08.251Z,93330.89
2018-09-03T09:58:36.491Z,93319.24
2018-09-03T10:01:10.290Z,93311.76
2018-09-03T10:03:38.500Z,93320.55
2018-09-03T10:06:06.762Z,93315.73
2018-09-03T10:08:35.043Z,93304.78
2018-09-03T10:11:03.325Z,93299.97
2018-09-03T10:13:31.593Z,93295.45
2018-09-03T10:16:00.201Z,93289.50
2018-09-03T10:18:28.336Z,93287.77
2018-09-03T10:20:56.568Z,93282.83
2018-09-03T10:23:24.939Z,93284.28
2018-09-03T10:25:53.041Z,93281.97
2018-09-03T10:28:21.403Z,93276.93
2018-09-03T10:30:49.714Z,93272.73
2018-09-03T10:33:18.135Z,93276.13
2018-09-03T10:35:46.244Z,93268.36
2018-09-03T10:38:14.641Z,93266.84
2018-09-03T10:40:42.855Z,93260.83
2018-09-03T10:43:11.022Z,93251.41
2018-09-03T10:45:44.296Z,93252.97
2018-09-03T10:48:13.901Z,93246.69
2018-09-03T10:50:45.438Z,93246.10
2018-09-03T10:53:13.705Z,93248.55
2018-09-03T10:55:42.189Z,93242.33
2018-09-03T10:58:11.194Z,93232.41
2018-09-03T11:00:39.566Z,93230.76
2018-09-03T11:03:08.187Z,93230.42
2018-09-03T11:05:36.651Z,93229.45
2018-09-03T11:08:05.025Z,93222.47
2018-09-03T11:10:33.227Z,93219.79
2018-09-03T11:13:01.674Z,93218.25
2018-09-03T11:15:29.812Z,93224.20
2018-09-03T11:17:57.952Z,93215.03
2018-09-03T11:20:27.453Z,93217.41
2018-09-03T11:22:56.139Z,93213.48
2018-09-03T11:25:25.813Z,93214.81
2018-09-03T11:27:54.913Z,93199.23
2018-09-03T11:30:23.783Z,93192.83
2018-09-03T11:32:59.079Z,93189.27
2018-09-03T11:35:27.355Z,93191.69
2018-09-03T11:37:55.630Z,93190.72
2018-09-03T11:40:24.722Z,93188.55
2018-09-03T11:42:53.282Z,93174.48
2018-09-03T11:45:22.693Z,93181.97
2018-09-03T11:47:50.905Z,93174.95
2018-09-03T11:50:19.918Z,93178.11
2018-09-03T11:52:48.442Z,93162.92
2018-09-03T11:55:16.889Z,93168.11
2018-09-03T11:57:45.403Z,93166.38
2018-09-03T12:00:20.519Z,93160.04
2018-09-03T12:02:49.047Z,93163.38
2018-09-03T12:05:17.423Z,93159.81
2018-09-03T12:07:45.652Z,93157.88
2018-09-03T12:10:13.807Z,93158.58
2018-09-03T12:12:42.597Z,93156.05
2018-09-03T12:15:15.543Z,93154.23
2018-09-03T12:17:43.742Z,93148.13
2018-09-03T12:20:11.902Z,93146.97
2018-09-03T12:22:40.209Z,93137.32
2018-09-03T12:25:08.549Z,93135.83
2018-09-03T12:27:36.656Z,93133.20
2018-09-03T12:30:07.984Z,93131.88
2018-09-03T12:32:37.393Z,93133.87
2018-09-03T12:35:07.378Z,93134.72
2018-09-03T12:37:36.703Z,93128.09
2018-09-03T12:40:08.924Z,93124.97
2018-09-03T12:42:38.785Z,93119.19
2018-09-03T12:45:10.727Z,93114.58
2018-09-03T12:47:39.177Z,93112.14
2018-09-03T12:50:08.118Z,93120.41
2018-09-03T12:52:40.158Z,93122.85
2018-09-03T12:55:10.223Z,93110.35
2018-09-03T12:57:41.325Z,93111.77
2018-09-03T13:00:17.613Z,93113.26
2018-09-03T13:02:56.169Z,93103.95
2018-09-03T13:05:25.775Z,93100.78
2018-09-03T13:07:54.858Z,93097.28
2018-09-03T13:10:23.103Z,93092.67
2018-09-03T13:12:51.182Z,93095.16
2018-09-03T13:15:19.233Z,93095.49
2018-09-03T13:17:47.353Z,93097.31
2018-09-03T13:20:15.518Z,93090.25
2018-09-03T13:22:43.735Z,93082.32
2018-09-03T13:25:11.821Z,93086.79
2018-09-03T13:27:39.901Z,93085.24
2018-09-03T13:30:09.215Z,93076.94
2018-09-03T13:32:37.407Z,93080.91
2018-09-03T13:35:05.714Z,93089.31
2018-09-03T13:37:33.863Z,93086.99
2018-09-03T13:40:02.090Z,93085.84
2018-09-03T13:42:30.667Z,93086.39
2018-09-03T13:44:58.841Z,93085.74
2018-09-03T13:47:27.213Z,93086.22
2018-09-03T13:49:55.417Z,93077.64
2018-09-03T13:52:23.458Z,93080.34
2018-09-03T13:54:51.719Z,93078.34
2018-09-03T13:57:19.853Z,93078.41
2018-09-03T13:59:48.304Z,93074.83
2018-09-03T14:02:16.423Z,93073.95
2018-09-03T14:04:44.710Z,93064.94
2018-09-03T14:07:12.863Z,93073.88
2018-09-03T14:09:42.514Z,93079.91
2018-09-03T14:12:13.771Z,93079.52
2018-09-03T14:14:42.071Z,93081.79
2018-09-03T14:17:10.319Z,93068.31
2018-09-03T14:19:38.557Z,93072.17
2018-09-03T14:22:06.927Z,93081.61
2018-09-03T14:24:35.303Z,93081.75
2018-09-03T14:27:28.375Z,93084.27
2018-09-03T14:30:02.620Z,93074.91
2018-09-03T14:32:30.985Z,93075.65
2018-09-03T14:34:59.269Z,93068.55
2018-09-03T14:37:27.637Z,93085.20
2018-09-03T14:39:55.761Z,93093.09
2018-09-03T14:42:24.009Z,93100.59
2018-09-03T14:44:52.215Z,93106.16
2018-09-03T14:47:20.412Z,93108.48
2018-09-03T14:49:48.608Z,93120.14
2018-09-03T14:52:16.743Z,93123.06
2018-09-03T14:54:45.711Z,93114.61
2018-09-03T14:57:13.863Z,93129.45
2018-09-03T14:59:46.555Z,93140.92
2018-09-03T15:02:16.459Z,93146.02
2018-09-03T15:04:44.783Z,93146.05
2018-09-03T15:07:12.859Z,93133.30
2018-09-03T15:09:40.999Z,93137.58
2018-09-03T15:12:24.928Z,93133.02
2018-09-03T15:14:56.508Z,93134.83
2018-09-03T15:17:24.590Z,93140.09
2018-09-03T15:19:52.706Z,93146.84
2018-09-03T15:22:20.804Z,93142.35
2018-09-03T15:24:48.905Z,93139.86
2018-09-03T15:27:17.092Z,93141.46
2018-09-03T15:29:45.371Z,93151.71
2018-09-03T15:32:21.557Z,93161.98
2018-09-03T15:34:52.156Z,93182.11
2018-09-03T15:37:21.897Z,93187.36
2018-09-03T15:39:52.113Z,93194.94
2018-09-03T15:42:23.215Z,93190.21
2018-09-03T15:44:54.268Z,93190.52
2018-09-03T15:47:26.432Z,93186.06
2018-09-03T15:49:56.744Z,93179.45
2018-09-03T15:52:27.329Z,93190.02
2018-09-03T15:54:57.326Z,93197.03
2018-09-03T15:57:29.813Z,93182.39
2018-09-03T16:00:01.009Z,93174.68
2018-09-03T16:02:31.619Z,93167.22
2018-09-03T16:05:03.118Z,93164.80
2018-09-03T16:07:31.592Z,93168.52
2018-09-03T16:09:59.790Z,93169.55
2018-09-03T16:12:28.208Z,93178.11
2018-09-03T16:14:56.567Z,93179.68
2018-09-03T16:17:24.735Z,93176.24
2018-09-03T16:19:53.434Z,93175.35
2018-09-03T16:22:21.968Z,93178.36
2018-09-03T16:25:06.492Z,93174.20
2018-09-03T16:27:35.595Z,93173.73
2018-09-03T16:30:04.611Z,93179.57
2018-09-03T16:32:35.176Z,93179.23
2018-09-03T16:35:03.697Z,93182.69
2018-09-03T16:37:32.261Z,93174.47
2018-09-03T16:40:00.866Z,93169.00
2018-09-03T16:42:36.186Z,93163.23
2018-09-03T16:45:06.391Z,93162.64
2018-09-03T16:47:38.375Z,93157.52
2018-09-03T16:50:08.312Z,93159.32
2018-09-03T16:52:36.560Z,93151.08
2018-09-03T16:55:05.293Z,93148.11
2018-09-03T16:57:33.737Z,93133.25
2018-09-03T17:00:06.858Z,93125.19
2018-09-03T17:02:41.603Z,93114.12
2018-09-03T17:05:13.792Z,93106.69
2018-09-03T17:07:42.146Z,93102.36
2018-09-03T17:10:10.859Z,93098.36
2018-09-03T17:12:39.877Z,93103.63
2018-09-03T17:15:08.050Z,93109.86
2018-09-03T17:17:36.251Z,93114.17
2018-09-03T17:20:05.005Z,93111.77
2018-09-03T17:22:33.292Z,93110.59
2018-09-03T17:25:01.585Z,93116.20
2018-09-03T17:27:29.839Z,93118.36
2018-09-03T17:29:58.166Z,93128.21
2018-09-03T17:32:26.408Z,93130.03
2018-09-03T17:34:54.640Z,93113.69
2018-09-03T17:37:23.147Z,93109.90
2018-09-03T17:39:51.187Z,93107.58
2018-09-03T17:42:19.629Z,93107.77
2018-09-03T17:44:47.956Z,93109.92
2018-09-03T17:47:16.298Z,93106.98
2018-09-03T17:49:44.554Z,93111.44
2018-09-03T17:52:12.819Z,93123.47
2018-09-03T17:54:41.272Z,93129.41
2018-09-03T17:57:11.308Z,93133.17
2018-09-03T17:59:39.725Z,93139.77
2018-09-03T18:02:08.360Z,93148.48
2018-09-03T18:04:36.817Z,93148.80
2018-09-03T18:07:05.149Z,93155.72
2018-09-03T18:09:33.324Z,93163.13
2018-09-03T18:12:04.081Z,93163.92
2018-09-03T18:14:32.529Z,93164.22
2018-09-03T18:17:00.870Z,93172.17
2018-09-03T18:19:29.231Z,93178.97
2018-09-03T18:21:57.571Z,93192.64
2018-09-03T18:24:25.776Z,93199.56
2018-09-03T18:26:54.065Z,93209.07
2018-09-03T18:29:24.214Z,93213.94
2018-09-03T18:31:52.484Z,93215.00
2018-09-03T18:34:20.903Z,93222.36
2018-09-03T18:36:50.918Z,93225.48
2018-09-03T18:39:19.505Z,93219.82
2018-09-03T18:41:49.061Z,93202.19
2018-09-03T18:44:19.843Z,93177.52
2018-09-03T18:46:49.978Z,93187.58
2018-09-03T18:49:18.533Z,93189.02
2018-09-03T18:51:46.816Z,93202.86
2018-09-03T18:54:15.186Z,93200.97
2018-09-03T18:56:43.649Z,93200.00
2018-09-03T18:59:11.849Z,93194.41
2018-09-03T19:01:40.386Z,93200.27
2018-09-03T19:04:08.851Z,93200.05
2018-09-03T19:06:37.305Z,93187.00
2018-09-03T19:09:07.182Z,93181.22
2018-09-03T19:11:35.424Z,93184.20
2018-09-03T19:14:03.760Z,93181.62
2018-09-03T19:16:33.021Z,93181.47
2018-09-03T19:19:01.522Z,93184.65
2018-09-03T19:21:29.786Z,93188.16
2018-09-03T19:23:58.083Z,93190.73
2018-09-03T19:26:26.284Z,93197.86
2018-09-03T19:28:54.551Z,93198.71
2018-09-03T19:31:22.917Z,93200.82
2018-09-03T19:33:51.403Z,93201.64
2018-09-03T19:36:19.563Z,93222.88
2018-09-03T19:38:47.775Z,93228.64
2018-09-03T19:41:16.211Z,93236.39
2018-09-03T19:43:44.447Z,93252.36
2018-09-03T19:46:12.809Z,93260.61
2018-09-03T19:48:41.067Z,93268.56
2018-09-03T19:51:09.200Z,93267.27
2018-09-03T19:53:37.422Z,93271.89
2018-09-03T19:56:06.026Z,93281.47
2018-09-03T19:58:34.392Z,93276.81
2018-09-03T20:01:02.567Z,93267.57
2018-09-03T20:03:30.744Z,93264.44
2018-09-03T20:05:59.266Z,93268.50
2018-09-03T20:08:27.428Z,93263.13
2018-09-03T20:10:55.640Z,93260.02
2018-09-03T20:13:23.976Z,93262.80
2018-09-03T20:15:52.556Z,93259.48
2018-09-03T20:18:20.669Z,93254.55
2018-09-03T20:20:48.817Z,93248.14
2018-09-03T20:23:17.015Z,93250.95
2018-09-03T20:25:45.113Z,93246.69
2018-09-03T20:28:13.244Z,93254.30
2018-09-03T20:30:41.516Z,93248.41
2018-09-03T20:33:09.817Z,93262.77
2018-09-03T20:35:37.967Z,93268.73
2018-09-03T20:38:06.129Z,93253.27
2018-09-03T20:40:34.227Z,93260.88
2018-09-03T20:43:02.552Z,93264.01
2018-09-03T20:45:30.869Z,93267.81
2018-09-03T20:47:59.124Z,93267.67
2018-09-03T20:50:27.280Z,93265.44
2018-09-03T20:52:55.480Z,93261.24
2018-09-03T20:55:24.009Z,93251.89
2018-09-03T20:57:52.214Z,93251.28
2018-09-03T21:00:20.299Z,93249.12
2018-09-03T21:02:48.488Z,93244.31
2018-09-03T21:05:16.571Z,93238.31
2018-09-03T21:07:44.714Z,93236.47
2018-09-03T21:10:12.857Z,93229.61
2018-09-03T21:12:41.001Z,93213.04
2018-09-03T21:15:09.073Z,93219.54
2018-09-03T21:17:37.404Z,93220.00
2018-09-03T21:20:05.885Z,93222.34
2018-09-03T21:22:34.041Z,93232.37
2018-09-03T21:25:02.305Z,93233.94
2018-09-03T21:27:30.403Z,93235.25
2018-09-03T21:29:58.416Z,93232.13
2018-09-03T21:32:26.537Z,93209.14
2018-09-03T21:34:54.709Z,93210.59
2018-09-03T21:37:22.840Z,93215.00
2018-09-03T21:39:50.978Z,93214.36
2018-09-03T21:42:19.112Z,93209.38
2018-09-03T21:44:47.239Z,93203.95
2018-09-03T21:47:15.513Z,93202.80
2018-09-03T21:49:43.603Z,93195.17
2018-09-03T21:52:11.670Z,93201.04
2018-09-03T21:54:39.762Z,93203.41
2018-09-03T21:57:08.027Z,93202.56
2018-09-03T21:59:36.143Z,93204.66
2018-09-03T22:02:08.096Z,93216.14
2018-09-03T22:04:36.905Z,93216.89
2018-09-03T22:07:04.970Z,93217.34
2018-09-03T22:09:33.076Z,93213.90
2018-09-03T22:12:01.151Z,93209.60
2018-09-03T22:14:29.284Z,93207.64
2018-09-03T22:16:57.405Z,93205.80
2018-09-03T22:19:25.425Z,93204.06
2018-09-03T22:21:53.603Z,93209.99
2018-09-03T22:24:21.756Z,93202.25
2018-09-03T22:26:50.412Z,93191.87
2018-09-03T22:29:18.501Z,93191.73
2018-09-03T22:31:46.594Z,93184.52
2018-09-03T22:34:14.710Z,93182.38
2018-09-03T22:36:43.737Z,93188.31
2018-09-03T22:39:12.221Z,93182.23
2018-09-03T22:41:40.285Z,93178.87
2018-09-03T22:44:08.397Z,93171.16
2018-09-03T22:46:36.531Z,93166.36
2018-09-03T22:49:04.854Z,93173.33
2018-09-03T22:51:32.986Z,93163.87
2018-09-03T22:54:01.076Z,93172.89
2018-09-03T22:56:29.143Z,93174.99
2018-09-03T22:58:57.400Z,93171.69
2018-09-03T23:01:25.547Z,93172.04
2018-09-03T23:03:53.745Z,93167.46
2018-09-03T23:06:21.830Z,93173.53
2018-09-03T23:08:49.877Z,93163.38
2018-09-03T23:11:18.018Z,93167.31
2018-09-03T23:13:46.147Z,93160.60
2018-09-03T23:16:14.219Z,93159.58
2018-09-03T23:18:42.316Z,93156.09
2018-09-03T23:21:10.481Z,93158.76
2018-09-03T23:23:38.581Z,93153.85
2018-09-03T23:26:06.655Z,93152.97
2018-09-03T23:28:34.739Z,93154.95
2018-09-03T23:31:02.776Z,93152.11
2018-09-03T23:33:30.925Z,93147.00
2018-09-03T23:35:58.908Z,93150.46
2018-09-03T23:38:27.100Z,93149.88
2018-09-03T23:40:55.302Z,93145.45
2018-09-03T23:43:23.339Z,93144.77
2018-09-03T23:45:51.379Z,93152.02
2018-09-03T23:48:19.445Z,93153.92
2018-09-03T23:50:47.633Z,93149.91
2018-09-03T23:53:15.886Z,93150.56
2018-09-03T23:55:43.943Z,93150.56
2018-09-03T23:58:11.976Z,93152.81
